createdAt,value
2023-02-11T00:00:57.257Z,5.88
2023-02-11T00:03:23.735Z,5.91
2023-02-11T00:06:06.048Z,5.94
2023-02-11T00:08:32.455Z,5.98
2023-02-11T00:10:58.844Z,5.98
2023-02-11T00:13:25.847Z,5.97
2023-02-11T00:15:52.557Z,6.00
2023-02-11T00:18:19.286Z,5.95
2023-02-11T00:20:45.959Z,5.96
2023-02-11T00:23:12.353Z,5.92
2023-02-11T00:25:44.517Z,5.93
2023-02-11T00:28:11.907Z,5.90
2023-02-11T00:30:38.510Z,5.93
2023-02-11T00:33:04.976Z,5.97
2023-02-11T00:35:31.349Z,5.98
2023-02-11T00:37:57.938Z,6.02
2023-02-11T00:40:24.620Z,6.05
2023-02-11T00:42:51.084Z,6.08
2023-02-11T00:45:17.679Z,6.08
2023-02-11T00:47:44.151Z,6.09
2023-02-11T00:50:10.705Z,6.07
2023-02-11T00:52:37.098Z,6.05
2023-02-11T00:55:03.679Z,6.04
2023-02-11T00:57:30.032Z,6.05
2023-02-11T00:59:56.419Z,6.07
2023-02-11T01:02:22.829Z,6.08
2023-02-11T01:04:49.303Z,6.03
2023-02-11T01:07:16.096Z,6.06
2023-02-11T01:09:42.470Z,6.05
2023-02-11T01:12:08.833Z,6.04
2023-02-11T01:14:35.202Z,6.00
2023-02-11T01:17:01.598Z,6.03
2023-02-11T01:19:27.966Z,6.00
2023-02-11T01:21:54.282Z,6.04
2023-02-11T01:24:20.618Z,6.04
2023-02-11T01:26:46.983Z,5.96
2023-02-11T01:29:13.326Z,6.02
2023-02-11T01:31:39.807Z,5.98
2023-02-11T01:34:06.193Z,5.99
2023-02-11T01:36:32.607Z,6.01
2023-02-11T01:38:58.958Z,6.03
2023-02-11T01:41:25.451Z,6.05
2023-02-11T01:43:51.945Z,6.04
2023-02-11T01:46:38.426Z,6.04
2023-02-11T01:49:12.386Z,6.02
2023-02-11T01:51:45.635Z,6.03
2023-02-11T01:54:33.465Z,6.04
2023-02-11T01:57:20.087Z,5.99
2023-02-11T02:00:09.374Z,6.03
2023-02-11T02:02:48.866Z,6.00
2023-02-11T02:05:28.908Z,6.02
2023-02-11T02:08:16.710Z,6.02
2023-02-11T02:10:47.013Z,6.01
2023-02-11T02:13:14.437Z,6.02
2023-02-11T02:15:52.863Z,5.96
2023-02-11T02:18:35.400Z,5.95
2023-02-11T02:21:13.882Z,5.98
2023-02-11T02:23:52.388Z,5.98
2023-02-11T02:26:42.453Z,5.96
2023-02-11T02:29:37.775Z,5.93
2023-02-11T02:32:32.932Z,5.89
2023-02-11T02:35:18.082Z,5.86
2023-02-11T02:37:51.436Z,5.83
2023-02-11T02:40:26.883Z,5.84
2023-02-11T02:42:55.176Z,5.87
2023-02-11T02:45:22.025Z,5.84
2023-02-11T02:47:48.472Z,5.84
2023-02-11T02:50:20.043Z,5.88
2023-02-11T02:53:08.360Z,5.88
2023-02-11T02:55:45.560Z,5.84
2023-02-11T02:58:34.193Z,5.87
2023-02-11T03:01:36.148Z,5.85
2023-02-11T03:04:19.295Z,5.81
2023-02-11T03:06:55.073Z,5.84
2023-02-11T03:10:02.657Z,5.89
2023-02-11T03:12:32.478Z,5.88
2023-02-11T03:15:01.039Z,5.86
2023-02-11T03:17:30.821Z,5.80
2023-02-11T03:19:59.276Z,5.80
2023-02-11T03:22:33.343Z,5.79
2023-02-11T03:25:01.578Z,5.78
2023-02-11T03:27:38.716Z,5.80
2023-02-11T03:30:19.013Z,5.81
2023-02-11T03:32:51.864Z,5.79
2023-02-11T03:35:24.294Z,5.84
2023-02-11T03:38:06.712Z,5.80
2023-02-11T03:40:37.748Z,5.83
2023-02-11T03:43:13.012Z,5.80
2023-02-11T03:45:39.673Z,5.85
2023-02-11T03:48:20.950Z,5.82
2023-02-11T03:50:50.175Z,5.85
2023-02-11T03:53:17.692Z,5.79
2023-02-11T03:55:47.332Z,5.85
2023-02-11T03:58:13.745Z,5.84
2023-02-11T04:00:42.604Z,5.83
2023-02-11T04:03:10.249Z,5.87
2023-02-11T04:05:37.307Z,5.85
2023-02-11T04:08:04.006Z,5.82
2023-02-11T04:10:30.699Z,5.84
2023-02-11T04:12:57.091Z,5.85
2023-02-11T04:15:24.435Z,5.84
2023-02-11T04:17:51.137Z,5.81
2023-02-11T04:20:17.735Z,5.82
2023-02-11T04:22:44.100Z,5.79
2023-02-11T04:25:10.694Z,5.79
2023-02-11T04:27:37.468Z,5.82
2023-02-11T04:30:05.298Z,5.76
2023-02-11T04:32:31.894Z,5.71
2023-02-11T04:34:58.258Z,5.76
2023-02-11T04:37:24.620Z,5.78
2023-02-11T04:39:50.961Z,5.82
2023-02-11T04:42:17.385Z,5.81
2023-02-11T04:44:43.740Z,5.79
2023-02-11T04:47:12.590Z,5.82
2023-02-11T04:49:39.063Z,5.80
2023-02-11T04:52:05.597Z,5.75
2023-02-11T04:54:31.983Z,5.77
2023-02-11T04:56:58.356Z,5.76
2023-02-11T04:59:24.993Z,5.77
2023-02-11T05:01:51.340Z,5.83
2023-02-11T05:04:18.208Z,5.75
2023-02-11T05:06:44.695Z,5.71
2023-02-11T05:09:12.871Z,5.71
2023-02-11T05:11:39.437Z,5.66
2023-02-11T05:14:07.029Z,5.62
2023-02-11T05:16:33.774Z,5.66
2023-02-11T05:19:00.533Z,5.66
2023-02-11T05:21:26.951Z,5.64
2023-02-11T05:23:53.320Z,5.62
2023-02-11T05:26:19.782Z,5.60
2023-02-11T05:28:46.207Z,5.54
2023-02-11T05:31:14.512Z,5.52
2023-02-11T05:33:41.364Z,5.45
2023-02-11T05:36:11.218Z,5.45
2023-02-11T05:38:38.396Z,5.47
2023-02-11T05:41:06.616Z,5.52
2023-02-11T05:43:35.010Z,5.51
2023-02-11T05:46:01.650Z,5.42
2023-02-11T05:48:28.036Z,5.45
2023-02-11T05:50:54.418Z,5.43
2023-02-11T05:53:20.798Z,5.48
2023-02-11T05:55:47.245Z,5.50
2023-02-11T05:58:13.646Z,5.49
2023-02-11T06:00:40.251Z,5.44
2023-02-11T06:03:06.663Z,5.39
2023-02-11T06:05:33.105Z,5.42
2023-02-11T06:07:59.505Z,5.45
2023-02-11T06:10:26.423Z,5.42
2023-02-11T06:12:52.818Z,5.47
2023-02-11T06:15:19.314Z,5.48
2023-02-11T06:17:45.636Z,5.50
2023-02-11T06:20:12.184Z,5.41
2023-02-11T06:22:38.536Z,5.44
2023-02-11T06:25:05.619Z,5.46
2023-02-11T06:27:32.025Z,5.41
2023-02-11T06:29:58.401Z,5.40
2023-02-11T06:32:42.793Z,5.43
2023-02-11T06:35:12.324Z,5.45
2023-02-11T06:37:39.328Z,5.46
2023-02-11T06:40:06.272Z,5.49
2023-02-11T06:42:32.667Z,5.50
2023-02-11T06:44:59.045Z,5.53
2023-02-11T06:47:25.439Z,5.51
2023-02-11T06:49:51.809Z,5.51
2023-02-11T06:52:18.197Z,5.55
2023-02-11T06:54:44.566Z,5.54
2023-02-11T06:57:11.009Z,5.52
2023-02-11T06:59:37.422Z,5.53
2023-02-11T07:02:04.090Z,5.61
2023-02-11T07:04:30.546Z,5.56
2023-02-11T07:06:56.933Z,5.59
2023-02-11T07:09:23.286Z,5.60
2023-02-11T07:11:49.697Z,5.56
2023-02-11T07:14:16.077Z,5.59
2023-02-11T07:16:42.572Z,5.63
2023-02-11T07:19:08.970Z,5.70
2023-02-11T07:21:35.579Z,5.70
2023-02-11T07:24:02.127Z,5.74
2023-02-11T07:26:29.220Z,5.75
2023-02-11T07:28:55.622Z,5.73
2023-02-11T07:31:25.126Z,5.71
2023-02-11T07:33:53.755Z,5.71
2023-02-11T07:36:20.191Z,5.72
2023-02-11T07:38:47.127Z,5.73
2023-02-11T07:41:16.552Z,5.74
2023-02-11T07:43:43.459Z,5.75
2023-02-11T07:46:16.170Z,5.77
2023-02-11T07:48:42.653Z,5.79
2023-02-11T07:51:21.066Z,5.78
2023-02-11T07:53:48.232Z,5.81
2023-02-11T07:56:16.374Z,5.78
2023-02-11T07:58:43.198Z,5.76
2023-02-11T08:01:12.211Z,5.82
2023-02-11T08:03:40.222Z,5.83
2023-02-11T08:06:08.773Z,5.82
2023-02-11T08:08:35.262Z,5.85
2023-02-11T08:11:10.283Z,5.90
2023-02-11T08:13:36.956Z,5.91
2023-02-11T08:16:04.312Z,5.91
2023-02-11T08:18:31.731Z,5.89
2023-02-11T08:21:04.856Z,5.87
2023-02-11T08:23:31.472Z,5.93
2023-02-11T08:26:04.883Z,5.97
2023-02-11T08:28:32.027Z,5.98
2023-02-11T08:30:58.501Z,5.94
2023-02-11T08:33:24.956Z,5.95
2023-02-11T08:35:51.468Z,5.99
2023-02-11T08:38:17.820Z,6.00
2023-02-11T08:40:44.351Z,6.00
2023-02-11T08:43:10.800Z,6.02
2023-02-11T08:45:37.487Z,6.02
2023-02-11T08:48:04.011Z,6.06
2023-02-11T08:50:30.610Z,6.07
2023-02-11T08:52:56.976Z,6.07
2023-02-11T08:55:23.346Z,6.02
2023-02-11T08:57:49.717Z,6.07
2023-02-11T09:00:17.410Z,6.09
2023-02-11T09:02:43.868Z,6.10
2023-02-11T09:05:10.365Z,6.12
2023-02-11T09:07:36.756Z,6.06
2023-02-11T09:10:03.560Z,6.13
2023-02-11T09:12:29.921Z,6.14
2023-02-11T09:14:56.384Z,6.17
2023-02-11T09:17:22.865Z,6.17
2023-02-11T09:19:49.196Z,6.20
2023-02-11T09:22:15.726Z,6.26
2023-02-11T09:24:42.095Z,6.29
2023-02-11T09:27:08.547Z,6.31
2023-02-11T09:29:35.042Z,6.28
2023-02-11T09:32:01.607Z,6.33
2023-02-11T09:34:35.408Z,6.29
2023-02-11T09:37:02.269Z,6.29
2023-02-11T09:39:29.264Z,6.33
2023-02-11T09:42:17.463Z,6.31
2023-02-11T09:44:46.061Z,6.35
2023-02-11T09:47:35.366Z,6.32
2023-02-11T09:50:12.260Z,6.36
2023-02-11T09:52:50.094Z,6.35
2023-02-11T09:55:34.127Z,6.42
2023-02-11T09:58:03.454Z,6.44
2023-02-11T10:00:53.416Z,6.44
2023-02-11T10:03:41.481Z,6.46
2023-02-11T10:06:19.598Z,6.49
2023-02-11T10:09:06.718Z,6.44
2023-02-11T10:12:01.338Z,6.47
2023-02-11T10:14:46.309Z,6.50
2023-02-11T10:17:31.829Z,6.53
2023-02-11T10:20:04.343Z,6.56
2023-02-11T10:22:41.266Z,6.62
2023-02-11T10:25:27.556Z,6.69
2023-02-11T10:27:57.984Z,6.68
2023-02-11T10:30:40.556Z,6.70
2023-02-11T10:33:19.973Z,6.70
2023-02-11T10:35:46.440Z,6.73
2023-02-11T10:38:12.953Z,6.67
2023-02-11T10:40:39.474Z,6.67
2023-02-11T10:43:13.372Z,6.70
2023-02-11T10:45:51.224Z,6.69
2023-02-11T10:48:42.395Z,6.74
2023-02-11T10:51:15.766Z,6.77
2023-02-11T10:53:42.204Z,6.71
2023-02-11T10:56:12.597Z,6.66
2023-02-11T10:58:45.860Z,6.74
2023-02-11T11:01:24.037Z,6.70
2023-02-11T11:03:52.344Z,6.69
2023-02-11T11:06:30.754Z,6.67
2023-02-11T11:08:57.443Z,6.77
2023-02-11T11:11:25.823Z,6.74
2023-02-11T11:13:52.150Z,6.77
2023-02-11T11:16:20.804Z,6.80
2023-02-11T11:18:49.819Z,6.75
2023-02-11T11:21:19.105Z,6.69
2023-02-11T11:24:17.340Z,6.73
2023-02-11T11:26:47.721Z,6.70
2023-02-11T11:29:19.133Z,6.71
2023-02-11T11:31:57.777Z,6.72
2023-02-11T11:34:33.926Z,6.76
2023-02-11T11:37:09.493Z,6.73
2023-02-11T11:39:36.254Z,6.70
2023-02-11T11:42:21.816Z,6.72
2023-02-11T11:44:56.240Z,6.70
2023-02-11T11:47:29.444Z,6.68
2023-02-11T11:50:20.127Z,6.72
2023-02-11T11:52:53.794Z,6.74
2023-02-11T11:55:31.017Z,6.76
2023-02-11T11:57:58.324Z,6.75
2023-02-11T12:00:33.594Z,6.68
2023-02-11T12:03:28.572Z,6.67
2023-02-11T12:06:28.672Z,6.71
2023-02-11T12:09:09.710Z,6.72
2023-02-11T12:11:39.122Z,6.78
2023-02-11T12:14:15.671Z,6.78
2023-02-11T12:17:12.675Z,6.79
2023-02-11T12:19:58.025Z,6.82
2023-02-11T12:22:42.860Z,6.90
2023-02-11T12:25:21.417Z,6.84
2023-02-11T12:27:54.640Z,6.84
2023-02-11T12:30:39.429Z,6.88
2023-02-11T12:33:33.084Z,6.96
2023-02-11T12:36:09.631Z,6.99
2023-02-11T12:38:49.251Z,6.98
2023-02-11T12:41:15.612Z,7.01
2023-02-11T12:43:44.466Z,6.98
2023-02-11T12:46:32.520Z,7.03
2023-02-11T12:49:42.920Z,7.05
2023-02-11T12:52:28.038Z,7.04
2023-02-11T12:55:02.309Z,7.02
2023-02-11T12:57:32.220Z,7.04
2023-02-11T13:00:15.092Z,7.06
2023-02-11T13:02:55.400Z,7.10
2023-02-11T13:05:40.467Z,7.13
2023-02-11T13:08:16.202Z,7.19
2023-02-11T13:10:53.193Z,7.17
2023-02-11T13:13:25.087Z,7.10
2023-02-11T13:16:22.680Z,7.16
2023-02-11T13:19:03.203Z,7.20
2023-02-11T13:21:33.500Z,7.28
2023-02-11T13:24:41.798Z,7.27
2023-02-11T13:27:36.316Z,7.34
2023-02-11T13:30:32.351Z,7.37
2023-02-11T13:33:00.579Z,7.41
2023-02-11T13:35:35.054Z,7.41
2023-02-11T13:38:04.809Z,7.40
2023-02-11T13:40:36.571Z,7.39
2023-02-11T13:43:05.575Z,7.41
2023-02-11T13:45:45.309Z,7.44
2023-02-11T13:48:27.270Z,7.44
2023-02-11T13:50:56.940Z,7.43
2023-02-11T13:53:24.063Z,7.43
2023-02-11T13:55:54.860Z,7.42
2023-02-11T13:58:27.072Z,7.41
2023-02-11T14:00:53.815Z,7.43
2023-02-11T14:03:50.306Z,7.46
2023-02-11T14:06:42.029Z,7.46
2023-02-11T14:09:14.181Z,7.47
2023-02-11T14:11:43.485Z,7.48
2023-02-11T14:14:31.627Z,7.52
2023-02-11T14:17:07.201Z,7.57
2023-02-11T14:19:43.669Z,7.53
2023-02-11T14:22:16.856Z,7.56
2023-02-11T14:24:49.069Z,7.56
2023-02-11T14:27:21.239Z,7.54
2023-02-11T14:30:06.003Z,7.53
2023-02-11T14:32:49.034Z,7.47
2023-02-11T14:35:19.646Z,7.49
2023-02-11T14:37:57.255Z,7.51
2023-02-11T14:40:26.689Z,7.49
2023-02-11T14:42:54.703Z,7.57
2023-02-11T14:45:29.212Z,7.63
2023-02-11T14:48:03.669Z,7.63
2023-02-11T14:50:46.223Z,7.68
2023-02-11T14:53:16.941Z,7.70
2023-02-11T14:55:46.735Z,7.67
2023-02-11T14:58:20.853Z,7.72
2023-02-11T15:00:55.910Z,7.74
2023-02-11T15:03:41.094Z,7.76
2023-02-11T15:06:25.039Z,7.82
2023-02-11T15:09:00.747Z,7.84
2023-02-11T15:11:31.037Z,7.90
2023-02-11T15:13:59.712Z,7.94
2023-02-11T15:16:28.696Z,7.90
2023-02-11T15:18:59.551Z,7.89
2023-02-11T15:21:29.995Z,7.91
2023-02-11T15:23:57.663Z,7.89
2023-02-11T15:26:24.344Z,7.87
2023-02-11T15:28:52.586Z,7.88
2023-02-11T15:31:23.335Z,7.87
2023-02-11T15:33:50.922Z,7.87
2023-02-11T15:36:20.729Z,7.89
2023-02-11T15:39:29.309Z,7.89
2023-02-11T15:41:55.700Z,7.91
2023-02-11T15:44:30.068Z,7.97
2023-02-11T15:46:56.612Z,8.06
2023-02-11T15:49:24.778Z,8.03
2023-02-11T15:51:53.972Z,7.98
2023-02-11T15:54:28.107Z,7.91
2023-02-11T15:57:02.120Z,7.90
2023-02-11T15:59:38.286Z,7.86
2023-02-11T16:02:15.011Z,7.88
2023-02-11T16:04:53.631Z,7.83
2023-02-11T16:07:41.550Z,7.82
2023-02-11T16:10:23.243Z,7.79
2023-02-11T16:12:53.619Z,7.78
2023-02-11T16:15:31.250Z,7.79
2023-02-11T16:17:57.789Z,7.75
2023-02-11T16:20:24.200Z,7.73
2023-02-11T16:22:50.857Z,7.75
2023-02-11T16:25:20.626Z,7.72
2023-02-11T16:27:52.340Z,7.72
2023-02-11T16:30:28.819Z,7.71
2023-02-11T16:32:55.341Z,7.67
2023-02-11T16:35:21.734Z,7.68
2023-02-11T16:37:48.115Z,7.64
2023-02-11T16:40:14.575Z,7.63
2023-02-11T16:42:40.968Z,7.62
2023-02-11T16:45:07.722Z,7.62
2023-02-11T16:47:35.824Z,7.65
2023-02-11T16:50:02.861Z,7.62
2023-02-11T16:52:31.652Z,7.65
2023-02-11T16:54:59.617Z,7.68
2023-02-11T16:57:29.541Z,7.65
2023-02-11T16:59:56.508Z,7.62
2023-02-11T17:02:26.578Z,7.63
2023-02-11T17:04:54.475Z,7.63
2023-02-11T17:07:21.586Z,7.61
2023-02-11T17:09:48.116Z,7.59
2023-02-11T17:12:14.496Z,7.57
2023-02-11T17:14:40.825Z,7.54
2023-02-11T17:17:08.008Z,7.56
2023-02-11T17:19:34.433Z,7.49
2023-02-11T17:22:00.884Z,7.46
2023-02-11T17:24:27.284Z,7.44
2023-02-11T17:26:54.672Z,7.45
2023-02-11T17:29:23.338Z,7.44
2023-02-11T17:31:51.777Z,7.43
2023-02-11T17:34:19.463Z,7.40
2023-02-11T17:36:46.174Z,7.41
2023-02-11T17:39:12.527Z,7.43
2023-02-11T17:41:40.197Z,7.40
2023-02-11T17:44:07.941Z,7.39
2023-02-11T17:46:35.386Z,7.41
2023-02-11T17:49:02.732Z,7.41
2023-02-11T17:51:37.216Z,7.43
2023-02-11T17:54:06.895Z,7.40
2023-02-11T17:56:35.514Z,7.41
2023-02-11T17:59:04.510Z,7.41
2023-02-11T18:01:33.297Z,7.36
2023-02-11T18:04:00.438Z,7.33
2023-02-11T18:06:28.999Z,7.36
2023-02-11T18:08:59.782Z,7.35
2023-02-11T18:11:27.759Z,7.32
2023-02-11T18:13:57.044Z,7.32
2023-02-11T18:16:25.702Z,7.34
2023-02-11T18:18:52.084Z,7.32
2023-02-11T18:21:20.596Z,7.36
2023-02-11T18:23:48.030Z,7.35
2023-02-11T18:26:15.988Z,7.36
2023-02-11T18:28:45.535Z,7.35
2023-02-11T18:31:14.010Z,7.34
2023-02-11T18:33:41.198Z,7.35
2023-02-11T18:36:09.876Z,7.35
2023-02-11T18:38:36.573Z,7.36
2023-02-11T18:41:03.543Z,7.37
2023-02-11T18:43:34.238Z,7.38
2023-02-11T18:46:02.763Z,7.38
2023-02-11T18:48:29.348Z,7.41
2023-02-11T18:50:55.935Z,7.37
2023-02-11T18:53:23.236Z,7.40
2023-02-11T18:55:49.857Z,7.37
2023-02-11T18:58:16.440Z,7.37
2023-02-11T19:00:46.729Z,7.38
2023-02-11T19:03:13.283Z,7.36
2023-02-11T19:05:48.025Z,7.39
2023-02-11T19:08:14.730Z,7.40
2023-02-11T19:10:43.037Z,7.39
2023-02-11T19:13:10.049Z,7.35
2023-02-11T19:15:43.695Z,7.37
2023-02-11T19:18:11.403Z,7.36
2023-02-11T19:20:43.516Z,7.37
2023-02-11T19:23:10.797Z,7.38
2023-02-11T19:25:37.550Z,7.35
2023-02-11T19:28:04.355Z,7.36
2023-02-11T19:30:30.877Z,7.36
2023-02-11T19:32:57.686Z,7.39
2023-02-11T19:35:25.126Z,7.40
2023-02-11T19:37:51.919Z,7.39
2023-02-11T19:40:20.429Z,7.38
2023-02-11T19:42:47.064Z,7.39
2023-02-11T19:45:13.518Z,7.42
2023-02-11T19:47:39.908Z,7.42
2023-02-11T19:50:06.992Z,7.40
2023-02-11T19:52:33.419Z,7.38
2023-02-11T19:55:00.487Z,7.45
2023-02-11T19:57:26.883Z,7.45
2023-02-11T19:59:54.889Z,7.41
2023-02-11T20:02:21.490Z,7.40
2023-02-11T20:04:48.053Z,7.42
2023-02-11T20:07:14.622Z,7.41
2023-02-11T20:09:42.484Z,7.44
2023-02-11T20:12:08.946Z,7.44
2023-02-11T20:14:35.506Z,7.41
2023-02-11T20:17:01.845Z,7.43
2023-02-11T20:19:30.255Z,7.42
2023-02-11T20:21:56.918Z,7.41
2023-02-11T20:24:24.511Z,7.40
2023-02-11T20:26:55.201Z,7.43
2023-02-11T20:29:22.169Z,7.43
2023-02-11T20:31:49.957Z,7.39
2023-02-11T20:34:17.550Z,7.38
2023-02-11T20:36:51.288Z,7.38
2023-02-11T20:39:18.543Z,7.36
2023-02-11T20:41:45.975Z,7.37
2023-02-11T20:44:12.430Z,7.36
2023-02-11T20:46:42.089Z,7.38
2023-02-11T20:49:11.964Z,7.38
2023-02-11T20:51:38.751Z,7.34
2023-02-11T20:54:06.357Z,7.24
2023-02-11T20:56:35.897Z,7.28
2023-02-11T20:59:03.997Z,7.31
2023-02-11T21:01:43.363Z,7.25
2023-02-11T21:04:15.278Z,7.27
2023-02-11T21:06:47.284Z,7.24
2023-02-11T21:09:17.317Z,7.18
2023-02-11T21:11:43.675Z,7.18
2023-02-11T21:14:11.893Z,7.13
2023-02-11T21:16:39.172Z,7.14
2023-02-11T21:19:06.211Z,7.17
2023-02-11T21:21:35.021Z,7.08
2023-02-11T21:24:01.454Z,7.06
2023-02-11T21:26:28.401Z,7.04
2023-02-11T21:28:55.151Z,7.03
2023-02-11T21:31:27.193Z,7.03
2023-02-11T21:33:59.244Z,7.02
2023-02-11T21:36:26.912Z,6.99
2023-02-11T21:38:53.306Z,6.95
2023-02-11T21:41:23.909Z,6.98
2023-02-11T21:43:50.939Z,6.97
2023-02-11T21:46:18.224Z,6.98
2023-02-11T21:48:44.679Z,6.97
2023-02-11T21:51:33.514Z,6.95
2023-02-11T21:54:01.606Z,6.88
2023-02-11T21:56:29.722Z,6.93
2023-02-11T21:58:57.734Z,6.96
2023-02-11T22:01:27.501Z,6.98
2023-02-11T22:03:54.295Z,6.95
2023-02-11T22:06:23.764Z,6.91
2023-02-11T22:09:00.748Z,6.82
2023-02-11T22:11:27.132Z,6.83
2023-02-11T22:13:57.882Z,6.86
2023-02-11T22:16:25.672Z,6.86
2023-02-11T22:18:53.204Z,6.83
2023-02-11T22:21:22.098Z,6.83
2023-02-11T22:23:49.626Z,6.81
2023-02-11T22:26:18.921Z,6.77
2023-02-11T22:28:46.930Z,6.76
2023-02-11T22:31:16.397Z,6.73
2023-02-11T22:33:43.182Z,6.74
2023-02-11T22:36:16.654Z,6.76
2023-02-11T22:38:43.090Z,6.78
2023-02-11T22:41:10.575Z,6.79
2023-02-11T22:43:37.961Z,6.76
2023-02-11T22:46:06.358Z,6.73
2023-02-11T22:48:34.620Z,6.73
2023-02-11T22:51:12.739Z,6.70
2023-02-11T22:53:39.700Z,6.72
2023-02-11T22:56:08.756Z,6.70
2023-02-11T22:58:35.915Z,6.64
2023-02-11T23:01:03.740Z,6.68
2023-02-11T23:03:31.309Z,6.68
2023-02-11T23:05:59.334Z,6.66
2023-02-11T23:08:27.673Z,6.63
2023-02-11T23:10:54.319Z,6.66
2023-02-11T23:13:20.739Z,6.67
2023-02-11T23:15:47.606Z,6.73
2023-02-11T23:18:14.561Z,6.69
2023-02-11T23:20:43.237Z,6.66
2023-02-11T23:23:09.677Z,6.60
2023-02-11T23:25:42.777Z,6.60
2023-02-11T23:28:09.880Z,6.62
2023-02-11T23:30:36.576Z,6.55
2023-02-11T23:33:03.001Z,6.58
2023-02-11T23:35:29.350Z,6.57
2023-02-11T23:37:55.724Z,6.54
2023-02-11T23:40:22.223Z,6.56
2023-02-11T23:42:48.966Z,6.59
2023-02-11T23:45:15.459Z,6.57
2023-02-11T23:47:41.856Z,6.52
2023-02-11T23:50:09.301Z,6.54
2023-02-11T23:52:35.782Z,6.56
2023-02-11T23:55:02.191Z,6.54
2023-02-11T23:57:28.634Z,6.55
2023-02-11T23:59:55.027Z,6.51
